createdAt,value
2017-11-24T00:01:26.377Z,13.10
2017-11-24T00:04:02.864Z,13.10
2017-11-24T00:06:36.782Z,13.10
2017-11-24T00:09:10.878Z,13.20
2017-11-24T00:11:44.732Z,13.20
2017-11-24T00:14:21.878Z,13.20
2017-11-24T00:16:55.757Z,13.20
2017-11-24T00:19:29.667Z,13.20
2017-11-24T00:22:04.412Z,13.20
2017-11-24T00:24:39.442Z,13.20
2017-11-24T00:27:13.289Z,13.20
2017-11-24T00:29:47.277Z,13.20
2017-11-24T00:32:21.208Z,13.10
2017-11-24T00:34:58.441Z,13.20
2017-11-24T00:37:32.375Z,13.20
2017-11-24T00:40:07.060Z,13.10
2017-11-24T00:42:40.964Z,13.10
2017-11-24T00:45:14.810Z,13.20
2017-11-24T00:47:49.601Z,13.10
2017-11-24T00:50:23.421Z,13.10
2017-11-24T00:52:58.401Z,13.20
2017-11-24T00:55:32.248Z,13.10
2017-11-24T00:58:06.020Z,13.10
2017-11-24T01:00:41.186Z,13.10
2017-11-24T01:03:14.944Z,13.10
2017-11-24T01:05:48.869Z,13.00
2017-11-24T01:08:22.736Z,13.00
2017-11-24T01:10:57.377Z,13.00
2017-11-24T01:13:31.833Z,12.90
2017-11-24T01:16:05.761Z,12.90
2017-11-24T01:18:40.426Z,12.90
2017-11-24T01:21:15.409Z,12.90
2017-11-24T01:23:49.175Z,12.90
2017-11-24T01:26:23.237Z,12.90
2017-11-24T01:28:57.718Z,12.90
2017-11-24T01:31:34.474Z,12.90
2017-11-24T01:34:08.187Z,12.80
2017-11-24T01:36:42.133Z,12.90
2017-11-24T01:39:16.746Z,12.90
2017-11-24T01:41:50.656Z,12.80
2017-11-24T01:44:24.905Z,12.90
2017-11-24T01:46:59.702Z,12.80
2017-11-24T01:49:33.422Z,12.80
2017-11-24T01:52:07.289Z,12.80
2017-11-24T01:54:41.100Z,12.70
2017-11-24T01:57:15.699Z,12.70
2017-11-24T01:59:49.803Z,12.70
2017-11-24T02:02:23.830Z,12.70
2017-11-24T02:04:57.711Z,12.70
2017-11-24T02:07:31.553Z,12.70
2017-11-24T02:10:05.435Z,12.70
2017-11-24T02:12:39.344Z,12.70
2017-11-24T02:15:13.227Z,12.80
2017-11-24T02:17:47.269Z,12.80
2017-11-24T02:20:23.409Z,12.80
2017-11-24T02:22:57.373Z,12.80
2017-11-24T02:25:32.658Z,12.80
2017-11-24T02:28:08.571Z,12.80
2017-11-24T02:30:43.689Z,12.80
2017-11-24T02:33:18.061Z,12.80
2017-11-24T02:35:51.974Z,12.80
2017-11-24T02:38:28.569Z,12.80
2017-11-24T02:41:02.447Z,12.80
2017-11-24T02:43:37.234Z,12.80
2017-11-24T02:46:13.768Z,12.80
2017-11-24T02:48:48.646Z,12.80
2017-11-24T02:51:22.555Z,12.80
2017-11-24T02:53:56.486Z,12.90
2017-11-24T02:56:31.333Z,12.80
2017-11-24T02:59:05.771Z,12.80
2017-11-24T03:01:44.574Z,12.70
2017-11-24T03:04:18.515Z,12.70
2017-11-24T03:06:59.646Z,12.70
2017-11-24T03:09:33.580Z,12.70
2017-11-24T03:12:07.576Z,12.60
2017-11-24T03:14:41.436Z,12.60
2017-11-24T03:17:17.473Z,12.50
2017-11-24T03:19:52.065Z,12.60
2017-11-24T03:22:25.818Z,12.60
2017-11-24T03:25:00.391Z,12.60
2017-11-24T03:27:34.340Z,12.60
2017-11-24T03:30:08.913Z,12.60
2017-11-24T03:32:42.830Z,12.60
2017-11-24T03:35:16.821Z,12.60
2017-11-24T03:37:50.972Z,12.50
2017-11-24T03:40:25.598Z,12.30
2017-11-24T03:43:01.477Z,12.30
2017-11-24T03:45:35.382Z,12.40
2017-11-24T03:48:09.251Z,12.30
2017-11-24T03:50:43.830Z,12.50
2017-11-24T03:53:18.481Z,12.40
2017-11-24T03:55:52.356Z,12.40
2017-11-24T03:58:27.409Z,12.50
2017-11-24T04:01:01.954Z,12.50
2017-11-24T04:03:36.900Z,12.40
2017-11-24T04:06:10.747Z,12.50
2017-11-24T04:08:45.608Z,12.80
2017-11-24T04:11:21.301Z,12.90
2017-11-24T04:13:55.364Z,12.90
2017-11-24T04:16:30.992Z,12.90
2017-11-24T04:19:05.080Z,12.90
2017-11-24T04:21:39.037Z,12.80
2017-11-24T04:24:12.951Z,12.80
2017-11-24T04:26:46.903Z,12.90
2017-11-24T04:29:20.892Z,12.90
2017-11-24T04:31:55.478Z,12.80
2017-11-24T04:34:30.462Z,12.80
2017-11-24T04:37:04.245Z,12.90
2017-11-24T04:39:38.415Z,12.90
2017-11-24T04:42:13.060Z,12.80
2017-11-24T04:44:46.984Z,12.80
2017-11-24T04:47:21.614Z,12.70
2017-11-24T04:49:55.706Z,12.70
2017-11-24T04:52:29.530Z,12.60
2017-11-24T04:55:05.325Z,12.60
2017-11-24T04:57:39.105Z,12.50
2017-11-24T05:00:14.149Z,12.50
2017-11-24T05:02:47.898Z,12.40
2017-11-24T05:05:22.492Z,12.60
2017-11-24T05:07:57.173Z,12.50
2017-11-24T05:10:30.826Z,12.70
2017-11-24T05:13:06.654Z,12.70
2017-11-24T05:15:40.327Z,12.70
2017-11-24T05:18:19.845Z,12.70
2017-11-24T05:20:53.777Z,12.70
2017-11-24T05:23:29.308Z,12.50
2017-11-24T05:26:03.294Z,12.50
2017-11-24T05:28:38.126Z,12.40
2017-11-24T05:31:11.846Z,12.40
2017-11-24T05:33:46.785Z,12.10
2017-11-24T05:36:21.295Z,12.10
2017-11-24T05:38:56.213Z,12.10
2017-11-24T05:41:29.928Z,12.20
2017-11-24T05:44:06.821Z,12.20
2017-11-24T05:46:40.606Z,12.20
2017-11-24T05:49:14.465Z,12.30
2017-11-24T05:51:49.371Z,12.30
2017-11-24T05:54:25.917Z,12.40
2017-11-24T05:57:00.614Z,12.50
2017-11-24T05:59:34.368Z,12.50
2017-11-24T06:02:08.429Z,12.60
2017-11-24T06:04:42.419Z,12.70
2017-11-24T06:07:16.273Z,12.80
2017-11-24T06:09:54.616Z,12.90
2017-11-24T06:12:28.430Z,12.90
2017-11-24T06:15:03.076Z,13.00
2017-11-24T06:17:45.172Z,12.90
2017-11-24T06:20:19.081Z,12.90
2017-11-24T06:22:53.501Z,12.70
2017-11-24T06:25:27.499Z,12.70
2017-11-24T06:28:01.393Z,12.70
2017-11-24T06:30:36.601Z,12.80
2017-11-24T06:33:15.698Z,12.80
2017-11-24T06:35:49.706Z,12.90
2017-11-24T06:38:25.740Z,12.90
2017-11-24T06:41:00.272Z,12.70
2017-11-24T06:43:34.288Z,12.70
2017-11-24T06:46:08.199Z,12.70
2017-11-24T06:48:42.937Z,12.90
2017-11-24T06:51:16.813Z,12.70
2017-11-24T06:53:52.193Z,12.60
2017-11-24T06:56:26.082Z,12.50
2017-11-24T06:58:59.960Z,12.60
2017-11-24T07:01:38.598Z,12.50
2017-11-24T07:04:22.065Z,12.30
2017-11-24T07:06:56.014Z,12.30
2017-11-24T07:09:29.837Z,12.20
2017-11-24T07:12:03.843Z,12.00
2017-11-24T07:14:37.977Z,12.00
2017-11-24T07:17:13.403Z,11.90
2017-11-24T07:19:48.140Z,11.80
2017-11-24T07:22:21.896Z,11.80
2017-11-24T07:24:56.893Z,11.80
2017-11-24T07:27:31.878Z,11.80
2017-11-24T07:30:05.723Z,11.80
2017-11-24T07:32:40.718Z,11.70
2017-11-24T07:35:14.660Z,11.70
2017-11-24T07:37:48.514Z,11.70
2017-11-24T07:40:22.450Z,11.70
2017-11-24T07:42:58.206Z,11.70
2017-11-24T07:45:34.280Z,11.80
2017-11-24T07:48:09.137Z,11.80
2017-11-24T07:50:43.584Z,12.00
2017-11-24T07:53:18.249Z,12.20
2017-11-24T07:55:53.506Z,12.20
2017-11-24T07:58:27.872Z,12.30
2017-11-24T08:01:01.741Z,12.30
2017-11-24T08:03:36.044Z,12.40
2017-11-24T08:06:09.904Z,12.40
2017-11-24T08:08:43.929Z,12.50
2017-11-24T08:11:17.795Z,12.40
2017-11-24T08:13:51.724Z,12.50
2017-11-24T08:16:25.570Z,12.60
2017-11-24T08:19:00.396Z,12.70
2017-11-24T08:21:34.234Z,12.70
2017-11-24T08:24:08.986Z,12.80
2017-11-24T08:26:42.921Z,12.80
2017-11-24T08:29:17.501Z,12.90
2017-11-24T08:31:51.456Z,12.90
2017-11-24T08:34:25.639Z,13.10
2017-11-24T08:36:59.394Z,13.30
2017-11-24T08:39:33.285Z,13.50
2017-11-24T08:42:07.573Z,13.60
2017-11-24T08:44:41.463Z,13.60
2017-11-24T08:47:22.047Z,13.80
2017-11-24T08:49:55.885Z,13.80
2017-11-24T08:52:30.973Z,13.80
2017-11-24T08:55:05.588Z,13.80
2017-11-24T08:57:39.731Z,13.70
2017-11-24T09:00:14.411Z,13.80
2017-11-24T09:02:48.377Z,13.80
2017-11-24T09:05:22.209Z,13.70
2017-11-24T09:07:57.315Z,13.70
2017-11-24T09:10:31.138Z,13.70
2017-11-24T09:13:07.811Z,14.10
2017-11-24T09:15:43.082Z,14.70
2017-11-24T09:18:18.973Z,14.70
2017-11-24T09:20:57.159Z,15.10
2017-11-24T09:23:31.522Z,15.30
2017-11-24T09:26:05.368Z,15.20
2017-11-24T09:28:39.256Z,15.00
2017-11-24T09:31:13.784Z,14.60
2017-11-24T09:33:47.797Z,14.70
2017-11-24T09:36:21.809Z,15.20
2017-11-24T09:38:58.688Z,16.40
2017-11-24T09:41:32.497Z,16.40
2017-11-24T09:44:08.111Z,17.50
2017-11-24T09:46:42.041Z,17.50
2017-11-24T09:49:15.917Z,17.50
2017-11-24T09:51:50.382Z,16.40
2017-11-24T09:54:25.367Z,16.40
2017-11-24T09:56:59.094Z,15.90
2017-11-24T09:59:44.825Z,15.50
2017-11-24T10:02:30.279Z,15.30
2017-11-24T10:05:15.044Z,15.90
2017-11-24T10:07:48.935Z,15.90
2017-11-24T10:10:23.879Z,16.20
2017-11-24T10:12:59.771Z,15.90
2017-11-24T10:15:33.935Z,15.90
2017-11-24T10:18:07.957Z,16.10
2017-11-24T10:34:36.449Z,16.80
2017-11-24T10:37:11.029Z,17.00
2017-11-24T10:39:44.850Z,17.00
2017-11-24T10:42:21.606Z,17.30
2017-11-24T10:44:57.302Z,17.30
2017-11-24T10:47:31.182Z,17.50
2017-11-24T10:50:07.350Z,17.50
2017-11-24T10:52:41.230Z,17.50
2017-11-24T10:55:16.073Z,17.60
2017-11-24T10:57:57.129Z,17.90
2017-11-24T11:00:39.415Z,18.20
2017-11-24T11:03:14.087Z,18.30
2017-11-24T11:05:48.772Z,18.50
2017-11-24T11:08:22.837Z,18.40
2017-11-24T11:10:57.425Z,18.50
2017-11-24T11:13:35.328Z,18.50
2017-11-24T11:16:15.095Z,18.70
2017-11-24T11:18:48.987Z,18.70
2017-11-24T11:21:24.383Z,18.50
2017-11-24T11:24:04.864Z,18.30
2017-11-24T11:26:38.614Z,18.30
2017-11-24T11:29:14.167Z,18.30
2017-11-24T11:31:52.084Z,18.20
2017-11-24T11:34:27.313Z,18.10
2017-11-24T11:37:21.167Z,17.90
2017-11-24T11:39:56.007Z,17.90
2017-11-24T11:42:33.812Z,17.90
2017-11-24T11:45:10.810Z,17.80
2017-11-24T11:47:44.753Z,17.80
2017-11-24T11:50:22.414Z,17.60
2017-11-24T11:52:56.676Z,17.60
2017-11-24T11:55:30.896Z,17.60
2017-11-24T11:58:10.707Z,17.50
2017-11-24T12:00:45.514Z,17.50
2017-11-24T12:03:22.861Z,17.60
2017-11-24T12:06:02.022Z,17.60
2017-11-24T12:08:35.934Z,17.50
2017-11-24T12:11:09.833Z,17.50
2017-11-24T12:13:46.872Z,17.60
2017-11-24T12:16:25.208Z,17.60
2017-11-24T12:19:08.372Z,17.70
2017-11-24T12:21:42.490Z,17.70
2017-11-24T12:24:17.779Z,17.40
2017-11-24T12:26:52.796Z,17.40
2017-11-24T12:29:30.172Z,17.20
2017-11-24T12:32:08.102Z,17.20
2017-11-24T12:34:54.810Z,17.30
2017-11-24T12:37:28.794Z,17.30
2017-11-24T12:40:02.753Z,17.20
2017-11-24T12:42:36.630Z,17.20
2017-11-24T12:45:13.310Z,17.10
2017-11-24T12:47:47.302Z,17.10
2017-11-24T12:50:39.352Z,16.70
2017-11-24T12:53:18.631Z,16.70
2017-11-24T12:55:59.141Z,16.60
2017-11-24T12:58:36.917Z,16.50
2017-11-24T13:01:12.231Z,16.50
2017-11-24T13:03:59.737Z,16.30
2017-11-24T13:06:58.640Z,16.30
2017-11-24T13:09:32.444Z,16.20
2017-11-24T13:12:25.594Z,16.10
2017-11-24T13:14:59.541Z,16.00
2017-11-24T13:17:37.758Z,16.00
2017-11-24T13:20:14.808Z,16.00
2017-11-24T13:22:50.608Z,15.90
2017-11-24T13:25:24.975Z,15.90
2017-11-24T13:28:06.868Z,15.70
2017-11-24T13:33:46.725Z,15.60
2017-11-24T13:36:21.230Z,15.50
2017-11-24T13:38:58.300Z,15.40
2017-11-24T13:41:37.031Z,15.40
2017-11-24T13:44:11.947Z,15.40
2017-11-24T13:46:51.046Z,15.20
2017-11-24T13:49:25.680Z,15.20
2017-11-24T13:51:59.616Z,15.00
2017-11-24T13:54:33.297Z,14.90
2017-11-24T13:57:07.060Z,14.80
2017-11-24T13:59:40.833Z,14.70
2017-11-24T14:02:15.025Z,14.70
2017-11-24T14:04:49.491Z,14.60
2017-11-24T14:07:23.137Z,14.60
2017-11-24T14:09:56.960Z,14.60
2017-11-24T14:12:30.599Z,14.50
2017-11-24T14:15:04.405Z,14.50
2017-11-24T14:17:38.184Z,14.50
2017-11-24T14:20:11.889Z,14.40
2017-11-24T14:22:45.723Z,14.40
2017-11-24T14:25:19.482Z,14.40
2017-11-24T14:27:53.224Z,14.40
2017-11-24T14:30:26.969Z,14.30
2017-11-24T14:33:00.958Z,14.20
2017-11-24T14:35:34.751Z,14.10
2017-11-24T14:38:08.602Z,14.00
2017-11-24T14:40:42.310Z,14.00
2017-11-24T14:43:15.995Z,14.00
2017-11-24T14:45:51.734Z,14.00
2017-11-24T14:48:28.499Z,14.00
2017-11-24T14:51:02.233Z,13.80
2017-11-24T14:53:36.039Z,13.80
2017-11-24T14:56:09.750Z,13.70
2017-11-24T14:58:43.580Z,13.70
2017-11-24T15:01:17.380Z,13.70
2017-11-24T15:03:51.190Z,13.60
2017-11-24T15:06:24.949Z,13.50
2017-11-24T15:08:58.634Z,13.50
2017-11-24T15:11:32.439Z,13.40
2017-11-24T15:14:06.217Z,13.40
2017-11-24T15:16:39.970Z,13.30
2017-11-24T15:19:13.742Z,13.30
2017-11-24T15:21:56.554Z,13.30
2017-11-24T15:24:30.434Z,13.20
2017-11-24T15:27:04.161Z,13.10
2017-11-24T15:29:38.252Z,13.10
2017-11-24T15:32:11.952Z,13.10
2017-11-24T15:34:46.049Z,13.10
2017-11-24T15:37:19.758Z,13.10
2017-11-24T15:39:53.594Z,13.20
2017-11-24T15:42:27.302Z,13.30
2017-11-24T15:45:01.107Z,13.10
2017-11-24T15:47:34.903Z,13.20
2017-11-24T15:50:09.391Z,13.20
2017-11-24T15:52:43.201Z,13.20
2017-11-24T15:55:16.991Z,13.30
2017-11-24T15:57:50.748Z,13.30
2017-11-24T16:00:24.652Z,13.30
2017-11-24T16:02:58.401Z,13.40
2017-11-24T16:05:32.175Z,13.40
2017-11-24T16:08:05.950Z,13.40
2017-11-24T16:10:39.670Z,13.50
2017-11-24T16:13:13.447Z,13.40
2017-11-24T16:15:47.227Z,13.40
2017-11-24T16:18:21.029Z,13.40
2017-11-24T16:20:54.786Z,13.40
2017-11-24T16:23:28.443Z,13.40
2017-11-24T16:26:02.319Z,13.30
2017-11-24T16:28:36.075Z,13.20
2017-11-24T16:31:09.791Z,13.20
2017-11-24T16:33:43.553Z,13.20
2017-11-24T16:36:18.092Z,13.20
2017-11-24T16:38:53.926Z,13.20
2017-11-24T16:41:27.763Z,13.30
2017-11-24T16:44:05.348Z,13.30
2017-11-24T16:46:39.225Z,13.20
2017-11-24T16:49:12.858Z,13.20
2017-11-24T16:51:50.071Z,13.20
2017-11-24T16:54:23.859Z,13.20
2017-11-24T16:56:57.598Z,13.20
2017-11-24T16:59:31.395Z,13.20
2017-11-24T17:02:05.201Z,13.10
2017-11-24T17:04:39.811Z,13.10
2017-11-24T17:07:13.521Z,13.10
2017-11-24T17:09:47.288Z,13.10
2017-11-24T17:12:21.810Z,13.10
2017-11-24T17:14:55.621Z,13.10
2017-11-24T17:17:29.278Z,13.10
2017-11-24T17:20:03.089Z,13.10
2017-11-24T17:22:36.773Z,13.10
2017-11-24T17:25:10.493Z,13.10
2017-11-24T17:27:45.077Z,13.10
2017-11-24T17:30:19.631Z,13.20
2017-11-24T17:32:53.268Z,13.20
2017-11-24T17:35:27.140Z,13.10
2017-11-24T17:38:00.815Z,13.00
2017-11-24T17:40:34.641Z,12.90
2017-11-24T17:43:11.396Z,12.90
2017-11-24T17:45:45.207Z,12.90
2017-11-24T17:48:18.936Z,12.90
2017-11-24T17:50:53.853Z,12.90
2017-11-24T17:53:27.850Z,12.90
2017-11-24T17:56:01.664Z,12.90
2017-11-24T17:58:36.240Z,12.80
2017-11-24T18:01:10.950Z,12.80
2017-11-24T18:03:44.757Z,12.80
2017-11-24T18:06:18.408Z,12.80
2017-11-24T18:08:52.323Z,12.80
2017-11-24T18:11:26.736Z,12.70
2017-11-24T18:14:00.579Z,12.70
2017-11-24T18:16:34.346Z,12.80
2017-11-24T18:19:08.160Z,12.80
2017-11-24T18:21:41.953Z,12.80
2017-11-24T18:24:15.721Z,12.80
2017-11-24T18:26:49.418Z,12.80
2017-11-24T18:29:23.207Z,12.80
2017-11-24T18:31:57.047Z,12.80
2017-11-24T18:34:30.821Z,12.80
2017-11-24T18:37:04.609Z,12.80
2017-11-24T18:39:38.318Z,12.70
2017-11-24T18:42:12.038Z,12.70
2017-11-24T18:44:45.746Z,12.60
2017-11-24T18:47:20.233Z,12.60
2017-11-24T18:49:54.014Z,12.50
2017-11-24T18:52:28.817Z,12.50
2017-11-24T18:55:02.489Z,12.50
2017-11-24T18:57:37.133Z,12.50
2017-11-24T19:00:10.837Z,12.50
2017-11-24T19:02:45.456Z,12.60
2017-11-24T19:05:20.022Z,12.60
2017-11-24T19:07:53.814Z,12.60
2017-11-24T19:10:28.375Z,12.60
2017-11-24T19:13:02.157Z,12.60
2017-11-24T19:15:35.978Z,12.50
2017-11-24T19:18:09.833Z,12.50
2017-11-24T19:20:43.577Z,12.40
2017-11-24T19:23:17.419Z,12.30
2017-11-24T19:25:51.009Z,12.40
2017-11-24T19:28:24.790Z,12.30
2017-11-24T19:30:58.586Z,12.40
2017-11-24T19:33:33.502Z,12.30
2017-11-24T19:36:07.355Z,12.30
2017-11-24T19:38:41.962Z,12.20
2017-11-24T19:41:15.688Z,12.10
2017-11-24T19:43:49.530Z,12.10
2017-11-24T19:46:23.306Z,12.10
2017-11-24T19:48:57.147Z,12.10
2017-11-24T19:51:30.949Z,11.90
2017-11-24T19:54:04.893Z,11.90
2017-11-24T19:56:38.626Z,11.90
2017-11-24T19:59:12.432Z,11.90
2017-11-24T20:01:46.326Z,11.80
2017-11-24T20:04:20.083Z,11.90
2017-11-24T20:06:53.949Z,11.90
2017-11-24T20:09:27.800Z,11.90
2017-11-24T20:12:01.588Z,11.80
2017-11-24T20:14:36.107Z,11.70
2017-11-24T20:17:10.713Z,11.70
2017-11-24T20:19:44.462Z,11.70
2017-11-24T20:22:19.021Z,11.60
2017-11-24T20:24:53.796Z,11.60
2017-11-24T20:27:27.590Z,11.60
2017-11-24T20:30:02.202Z,11.60
2017-11-24T20:32:36.823Z,11.60
2017-11-24T20:35:10.521Z,11.60
2017-11-24T20:37:44.341Z,11.60
2017-11-24T20:40:18.536Z,11.60
2017-11-24T20:42:52.313Z,11.60
2017-11-24T20:45:26.271Z,11.50
2017-11-24T20:47:59.959Z,11.50
2017-11-24T20:50:33.789Z,11.50
2017-11-24T20:53:07.532Z,11.40
2017-11-24T20:55:41.305Z,11.40
2017-11-24T20:58:15.156Z,11.50
2017-11-24T21:00:49.986Z,11.40
2017-11-24T21:03:23.603Z,11.40
2017-11-24T21:05:57.690Z,11.40
2017-11-24T21:08:31.388Z,11.50
2017-11-24T21:11:06.188Z,11.50
2017-11-24T21:13:39.923Z,11.50
2017-11-24T21:16:13.834Z,11.60
2017-11-24T21:18:48.428Z,11.50
2017-11-24T21:21:22.486Z,11.50
2017-11-24T21:23:56.207Z,11.50
2017-11-24T21:26:29.985Z,11.50
2017-11-24T21:29:03.758Z,11.50
2017-11-24T21:31:38.176Z,11.50
2017-11-24T21:34:11.864Z,11.60
2017-11-24T21:36:45.882Z,11.50
2017-11-24T21:39:19.763Z,11.50
2017-11-24T21:41:53.935Z,11.50
2017-11-24T21:44:27.734Z,11.60
2017-11-24T21:47:01.385Z,11.70
2017-11-24T21:49:35.290Z,11.60
2017-11-24T21:52:08.995Z,11.60
2017-11-24T21:54:42.783Z,11.60
2017-11-24T21:57:16.528Z,11.60
2017-11-24T21:59:50.267Z,11.50
2017-11-24T22:02:25.110Z,11.50
2017-11-24T22:04:59.176Z,11.50
2017-11-24T22:07:33.069Z,11.40
2017-11-24T22:10:06.904Z,11.50
2017-11-24T22:12:40.620Z,11.40
2017-11-24T22:15:14.451Z,11.40
2017-11-24T22:17:48.283Z,11.50
2017-11-24T22:20:23.315Z,11.40
2017-11-24T22:22:57.096Z,11.40
2017-11-24T22:25:31.009Z,11.30
2017-11-24T22:28:04.723Z,11.40
2017-11-24T22:30:38.517Z,11.40
2017-11-24T22:33:12.525Z,11.30
2017-11-24T22:35:46.372Z,11.40
2017-11-24T22:38:20.865Z,11.30
2017-11-24T22:40:54.614Z,11.30
2017-11-24T22:43:29.241Z,11.30
2017-11-24T22:46:03.769Z,11.20
2017-11-24T22:48:37.609Z,11.30
2017-11-24T22:51:12.179Z,11.20
2017-11-24T22:53:46.018Z,11.20
2017-11-24T22:56:19.802Z,11.20
2017-11-24T22:58:53.652Z,11.30
2017-11-24T23:01:27.510Z,11.30
2017-11-24T23:04:01.308Z,11.30
2017-11-24T23:06:35.723Z,11.30
2017-11-24T23:09:09.438Z,11.30
2017-11-24T23:11:43.553Z,11.30
2017-11-24T23:14:17.353Z,11.30
2017-11-24T23:16:51.171Z,11.30
2017-11-24T23:19:24.889Z,11.30
2017-11-24T23:21:58.702Z,11.30
2017-11-24T23:24:33.302Z,11.30
2017-11-24T23:27:07.071Z,11.30
2017-11-24T23:29:41.538Z,11.30
2017-11-24T23:32:15.300Z,11.30
2017-11-24T23:34:49.082Z,11.30
2017-11-24T23:37:22.713Z,11.30
2017-11-24T23:39:57.627Z,11.40
2017-11-24T23:42:31.554Z,11.30
2017-11-24T23:45:05.307Z,11.30
2017-11-24T23:47:39.787Z,11.30
2017-11-24T23:50:14.319Z,11.30
2017-11-24T23:52:48.150Z,11.30
2017-11-24T23:55:22.665Z,11.30
2017-11-24T23:57:56.455Z,11.30
